Time;durP1;ratioP1;P1;durP2;ratioP2;P2;SDS_P1;SDS_P2;PMS_P1;PMS_P2;Temp;Humidity;BMP_temperature;BMP_pressure;BME280_temperature;BME280_humidity;BME280_pressure;Samples;Min_cycle;Max_cycle;Signal;HPM_P1;HPM_P2
2021/04/21 00:02:04;;;;;;;28.53;26.73;;;;;;;;;;5072329;28;20477;-73
2021/04/21 00:04:33;;;;;;;28.37;26.47;;;;;;;;;;5072447;28;20435;-73
2021/04/21 00:07:01;;;;;;;28.10;26.20;;;;;;;;;;5072754;28;20405;-73
2021/04/21 00:09:28;;;;;;;27.97;26.17;;;;;;;;;;5072673;28;20469;-74
2021/04/21 00:11:55;;;;;;;26.90;25.00;;;;;;;;;;5072239;28;20423;-73
2021/04/21 00:14:25;;;;;;;27.07;25.07;;;;;;;;;;5072646;28;20441;-73
2021/04/21 00:16:53;;;;;;;28.17;25.93;;;;;;;;;;5072607;28;20452;-74
2021/04/21 00:19:22;;;;;;;27.63;25.70;;;;;;;;;;5072443;28;20393;-74
2021/04/21 00:21:49;;;;;;;26.90;25.00;;;;;;;;;;5076247;28;20710;-74
2021/04/21 00:24:16;;;;;;;28.60;26.50;;;;;;;;;;5076260;28;20433;-73
2021/04/21 00:26:44;;;;;;;28.43;26.53;;;;;;;;;;5075743;28;20409;-74
2021/04/21 00:29:11;;;;;;;27.93;25.83;;;;;;;;;;5075821;28;20408;-74
2021/04/21 00:31:40;;;;;;;27.80;25.90;;;;;;;;;;5076063;28;20486;-73
2021/04/21 00:34:08;;;;;;;28.77;26.77;;;;;;;;;;5075769;28;20551;-74
2021/04/21 00:36:36;;;;;;;29.03;26.83;;;;;;;;;;5076029;28;20431;-73
2021/04/21 00:39:04;;;;;;;28.03;26.23;;;;;;;;;;5075645;28;20718;-73
2021/04/21 00:41:35;;;;;;;27.77;25.77;;;;;;;;;;5075812;28;20535;-73
2021/04/21 00:44:11;;;;;;;27.43;25.63;;;;;;;;;;5075805;28;20437;-74
2021/04/21 00:46:39;;;;;;;28.60;26.67;;;;;;;;;;5075478;28;20411;-73
2021/04/21 00:49:09;;;;;;;27.93;26.13;;;;;;;;;;5075702;28;20529;-73
2021/04/21 00:51:42;;;;;;;28.40;26.37;;;;;;;;;;5074218;28;20969;-74
2021/04/21 00:54:11;;;;;;;28.47;26.27;;;;;;;;;;5075726;28;20419;-73
2021/04/21 00:56:46;;;;;;;28.93;26.80;;;;;;;;;;5075121;28;20466;-73
2021/04/21 00:59:16;;;;;;;28.17;26.13;;;;;;;;;;5075324;28;20448;-73
2021/04/21 01:01:44;;;;;;;28.63;26.57;;;;;;;;;;5075096;28;20469;-73
2021/04/21 01:04:12;;;;;;;29.03;26.73;;;;;;;;;;5075490;28;20488;-73
2021/04/21 01:06:40;;;;;;;28.37;26.37;;;;;;;;;;5075445;28;20908;-73
2021/04/21 01:09:07;;;;;;;27.50;25.60;;;;;;;;;;5075156;28;20763;-73
2021/04/21 01:11:36;;;;;;;27.23;25.43;;;;;;;;;;5076018;28;20838;-73
2021/04/21 01:14:05;;;;;;;27.93;26.17;;;;;;;;;;5075338;28;20468;-73
2021/04/21 01:16:33;;;;;;;28.57;26.57;;;;;;;;;;5075335;28;20714;-73
2021/04/21 01:19:03;;;;;;;29.07;26.97;;;;;;;;;;5074910;28;20942;-73
2021/04/21 01:21:34;;;;;;;28.47;25.97;;;;;;;;;;5074804;28;20455;-73
2021/04/21 01:24:16;;;;;;;27.47;25.73;;;;;;;;;;5074831;28;20413;-74
2021/04/21 01:26:47;;;;;;;28.80;26.70;;;;;;;;;;5074601;28;20412;-73
2021/04/21 01:29:17;;;;;;;29.67;27.23;;;;;;;;;;5075074;28;20436;-73
2021/04/21 01:31:44;;;;;;;27.27;25.23;;;;;;;;;;5073852;28;20533;-73
2021/04/21 01:34:11;;;;;;;27.17;25.27;;;;;;;;;;5074970;28;20415;-73
2021/04/21 01:36:38;;;;;;;26.40;24.60;;;;;;;;;;5074657;28;20462;-73
2021/04/21 01:39:05;;;;;;;29.10;26.90;;;;;;;;;;5074569;28;20474;-73
2021/04/21 01:41:36;;;;;;;27.70;25.70;;;;;;;;;;5074411;28;20480;-73
2021/04/21 01:44:04;;;;;;;27.10;25.23;;;;;;;;;;5074476;28;20438;-73
2021/04/21 01:46:36;;;;;;;27.43;25.70;;;;;;;;;;5074622;28;20429;-73
2021/04/21 01:49:06;;;;;;;26.83;25.03;;;;;;;;;;5073337;28;20928;-73
2021/04/21 01:51:34;;;;;;;27.73;26.03;;;;;;;;;;5074250;28;20477;-73
2021/04/21 01:54:05;;;;;;;28.00;25.70;;;;;;;;;;5074547;28;20453;-73
2021/04/21 01:56:33;;;;;;;27.20;25.50;;;;;;;;;;5072772;28;20287;-73
2021/04/21 01:59:03;;;;;;;28.73;26.53;;;;;;;;;;5074118;28;20438;-73
2021/04/21 02:01:50;;;;;;;28.57;26.57;;;;;;;;;;5074137;28;20833;-73
2021/04/21 02:04:27;;;;;;;27.45;25.52;;;;;;;;;;5074334;28;20477;-73
2021/04/21 02:06:59;;;;;;;28.67;26.83;;;;;;;;;;5073982;28;20641;-73
2021/04/21 02:09:47;;;;;;;27.20;25.40;;;;;;;;;;5074292;28;20475;-73
2021/04/21 02:12:23;;;;;;;27.60;25.80;;;;;;;;;;5074250;28;20426;-73
2021/04/21 02:14:55;;;;;;;27.50;25.60;;;;;;;;;;5074124;28;20441;-73
2021/04/21 02:17:26;;;;;;;27.75;25.95;;;;;;;;;;5073760;28;20434;-73
2021/04/21 02:19:57;;;;;;;27.87;25.90;;;;;;;;;;5073588;28;20211;-73
2021/04/21 02:22:31;;;;;;;28.10;26.20;;;;;;;;;;5073712;28;20923;-72
2021/04/21 02:25:02;;;;;;;27.73;25.43;;;;;;;;;;5073908;28;20418;-73
2021/04/21 02:27:34;;;;;;;27.77;25.77;;;;;;;;;;5073447;28;20962;-73
2021/04/21 02:30:05;;;;;;;27.87;25.80;;;;;;;;;;5073825;28;20449;-73
2021/04/21 02:32:36;;;;;;;26.50;24.70;;;;;;;;;;5073822;28;20432;-73
2021/04/21 02:35:09;;;;;;;28.73;26.77;;;;;;;;;;5073770;28;20411;-73
2021/04/21 02:37:40;;;;;;;28.13;26.13;;;;;;;;;;5073741;28;20408;-73
2021/04/21 02:40:13;;;;;;;27.08;25.13;;;;;;;;;;5073936;28;20227;-73
2021/04/21 02:42:43;;;;;;;28.33;26.20;;;;;;;;;;5073567;28;20195;-74
2021/04/21 02:45:14;;;;;;;29.17;27.17;;;;;;;;;;5073608;28;20192;-73
2021/04/21 02:47:45;;;;;;;28.73;26.70;;;;;;;;;;5073610;28;20435;-73
2021/04/21 02:50:16;;;;;;;28.50;26.40;;;;;;;;;;5073129;28;20185;-73
2021/04/21 02:52:52;;;;;;;27.35;25.58;;;;;;;;;;5072175;28;20916;-73
2021/04/21 02:55:26;;;;;;;28.25;26.25;;;;;;;;;;5073240;28;20186;-74
2021/04/21 02:57:57;;;;;;;28.60;26.40;;;;;;;;;;5072970;28;20646;-73
2021/04/21 03:00:28;;;;;;;27.27;25.30;;;;;;;;;;5072927;28;20463;-74
2021/04/21 03:02:59;;;;;;;29.20;26.80;;;;;;;;;;5072899;28;20468;-74
2021/04/21 03:05:27;;;;;;;27.40;25.50;;;;;;;;;;5071906;28;20974;-74
2021/04/21 03:07:58;;;;;;;27.00;25.02;;;;;;;;;;5072016;28;20418;-74
2021/04/21 03:10:26;;;;;;;28.15;25.75;;;;;;;;;;5072973;28;20186;-73
2021/04/21 03:12:59;;;;;;;26.47;24.60;;;;;;;;;;5073206;28;20190;-73
2021/04/21 03:15:28;;;;;;;27.40;25.58;;;;;;;;;;5072891;28;20456;-73
2021/04/21 03:17:57;;;;;;;27.42;25.35;;;;;;;;;;5072914;28;20198;-75
2021/04/21 03:20:25;;;;;;;27.83;25.73;;;;;;;;;;5073107;28;20245;-73
2021/04/21 03:22:53;;;;;;;27.67;25.80;;;;;;;;;;5072847;28;20930;-73
2021/04/21 03:25:23;;;;;;;25.95;24.25;;;;;;;;;;5072499;28;20456;-73
2021/04/21 03:27:52;;;;;;;27.85;25.85;;;;;;;;;;5072592;28;20190;-74
2021/04/21 03:30:19;;;;;;;27.13;25.20;;;;;;;;;;5073027;28;20186;-74
2021/04/21 03:32:48;;;;;;;27.25;25.33;;;;;;;;;;5072624;28;20206;-74
2021/04/21 03:35:17;;;;;;;27.40;25.27;;;;;;;;;;5073043;28;20236;-73
2021/04/21 03:37:53;;;;;;;27.42;25.55;;;;;;;;;;5072800;28;20186;-73
2021/04/21 03:40:20;;;;;;;28.30;25.85;;;;;;;;;;5072862;28;20218;-74
2021/04/21 03:42:47;;;;;;;26.98;24.98;;;;;;;;;;5072998;28;20189;-73
2021/04/21 03:45:15;;;;;;;28.08;26.05;;;;;;;;;;5072612;28;20188;-73
2021/04/21 03:47:42;;;;;;;27.17;25.10;;;;;;;;;;5072682;28;20195;-74
2021/04/21 03:50:10;;;;;;;27.17;25.38;;;;;;;;;;5072550;28;20636;-73
2021/04/21 03:52:40;;;;;;;26.27;24.25;;;;;;;;;;5072910;28;20206;-74
2021/04/21 03:55:08;;;;;;;26.95;24.75;;;;;;;;;;5074139;28;20193;-73
2021/04/21 03:57:37;;;;;;;26.55;24.65;;;;;;;;;;5076146;28;20243;-74
2021/04/21 04:00:05;;;;;;;26.40;24.50;;;;;;;;;;5075364;28;20226;-74
2021/04/21 04:02:33;;;;;;;26.83;24.92;;;;;;;;;;5076349;28;20221;-73
2021/04/21 04:05:01;;;;;;;27.15;24.92;;;;;;;;;;5076678;28;20189;-73
2021/04/21 04:07:28;;;;;;;25.95;24.25;;;;;;;;;;5075300;28;20215;-73
2021/04/21 04:09:58;;;;;;;27.30;24.92;;;;;;;;;;5076561;28;20206;-73
2021/04/21 04:12:27;;;;;;;27.15;25.15;;;;;;;;;;5076275;28;20198;-73
2021/04/21 04:14:55;;;;;;;25.98;24.27;;;;;;;;;;5075287;28;20185;-74
2021/04/21 04:17:23;;;;;;;25.98;24.25;;;;;;;;;;5074796;28;20285;-73
2021/04/21 04:19:51;;;;;;;28.48;25.85;;;;;;;;;;5074788;28;20190;-74
2021/04/21 04:22:19;;;;;;;27.15;25.35;;;;;;;;;;5076025;28;20198;-73
2021/04/21 04:24:46;;;;;;;27.90;25.60;;;;;;;;;;5076260;28;20189;-74
2021/04/21 04:27:16;;;;;;;27.42;25.42;;;;;;;;;;5074644;28;20231;-73
2021/04/21 04:29:44;;;;;;;27.35;25.42;;;;;;;;;;5075866;28;20190;-74
2021/04/21 04:32:15;;;;;;;27.35;25.27;;;;;;;;;;5075658;28;20210;-73
2021/04/21 04:34:46;;;;;;;27.15;25.25;;;;;;;;;;5075785;28;20201;-72
2021/04/21 04:37:14;;;;;;;27.45;25.60;;;;;;;;;;5076016;28;20197;-72
2021/04/21 04:39:41;;;;;;;26.60;24.70;;;;;;;;;;5075556;28;20205;-73
2021/04/21 04:42:09;;;;;;;27.90;25.77;;;;;;;;;;5076099;28;20581;-73
2021/04/21 04:44:40;;;;;;;28.88;26.38;;;;;;;;;;5075970;28;20250;-74
2021/04/21 04:47:08;;;;;;;26.90;24.73;;;;;;;;;;5075524;28;20198;-72
2021/04/21 04:49:38;;;;;;;27.92;25.73;;;;;;;;;;5075433;28;20456;-72
2021/04/21 04:52:07;;;;;;;27.45;25.25;;;;;;;;;;5076461;28;20191;-72
2021/04/21 04:54:34;;;;;;;27.33;25.17;;;;;;;;;;5075403;28;20603;-72
2021/04/21 04:57:02;;;;;;;27.02;24.80;;;;;;;;;;5075149;28;20595;-72
2021/04/21 04:59:28;;;;;;;27.85;25.67;;;;;;;;;;5075758;28;20247;-72
2021/04/21 05:01:58;;;;;;;27.50;25.15;;;;;;;;;;5073976;28;20294;-72
2021/04/21 05:04:28;;;;;;;26.95;25.10;;;;;;;;;;5075473;28;20198;-72
2021/04/21 05:06:58;;;;;;;29.33;26.88;;;;;;;;;;5072899;28;20309;-72
2021/04/21 05:09:25;;;;;;;28.33;26.33;;;;;;;;;;5075586;28;20532;-72
2021/04/21 05:11:53;;;;;;;30.75;27.77;;;;;;;;;;5073801;28;20213;-72
2021/04/21 05:14:23;;;;;;;27.85;25.42;;;;;;;;;;5075861;28;20365;-72
2021/04/21 05:17:07;;;;;;;28.30;26.02;;;;;;;;;;5075308;28;20235;-72
2021/04/21 05:19:52;;;;;;;29.17;27.08;;;;;;;;;;5074912;28;20199;-72
2021/04/21 05:22:49;;;;;;;27.58;25.48;;;;;;;;;;5074810;28;20193;-71
2021/04/21 05:25:30;;;;;;;27.42;25.23;;;;;;;;;;5074837;28;20195;-72
2021/04/21 05:28:27;;;;;;;27.55;25.55;;;;;;;;;;5074690;28;20202;-73
2021/04/21 05:31:13;;;;;;;28.05;25.70;;;;;;;;;;5074986;28;20194;-72
2021/04/21 05:33:58;;;;;;;27.10;25.08;;;;;;;;;;5073468;28;20650;-77
2021/04/21 05:36:43;;;;;;;28.85;26.77;;;;;;;;;;5074859;28;20251;-78
2021/04/21 05:39:28;;;;;;;30.07;27.87;;;;;;;;;;5044331;28;20568;-78
2021/04/21 05:42:14;;;;;;;29.13;26.73;;;;;;;;;;5074945;28;20670;-82
2021/04/21 05:44:57;;;;;;;28.33;26.25;;;;;;;;;;5075663;28;20483;-76
2021/04/21 05:47:41;;;;;;;28.90;26.63;;;;;;;;;;5074937;28;20230;-77
2021/04/21 05:50:15;;;;;;;30.08;27.73;;;;;;;;;;5074643;28;20194;-77
2021/04/21 05:52:52;;;;;;;28.77;26.70;;;;;;;;;;5074842;28;20198;-78
2021/04/21 05:55:36;;;;;;;29.38;26.95;;;;;;;;;;5074095;28;20415;-77
2021/04/21 05:58:20;;;;;;;30.53;28.00;;;;;;;;;;5074335;28;20547;-77
2021/04/21 06:00:59;;;;;;;29.37;27.27;;;;;;;;;;5073561;28;20488;-76
2021/04/21 06:03:28;;;;;;;29.97;27.80;;;;;;;;;;5074187;28;20441;-76
2021/04/21 06:06:02;;;;;;;31.60;29.00;;;;;;;;;;5074820;28;20433;-76
2021/04/21 06:08:29;;;;;;;30.47;27.80;;;;;;;;;;5074502;28;20420;-78
2021/04/21 06:10:56;;;;;;;30.02;27.83;;;;;;;;;;5074169;28;20466;-76
2021/04/21 06:13:27;;;;;;;31.57;29.27;;;;;;;;;;5074534;28;20187;-76
2021/04/21 06:15:53;;;;;;;30.40;28.10;;;;;;;;;;5073940;28;20915;-75
2021/04/21 06:18:22;;;;;;;32.63;30.13;;;;;;;;;;5073821;28;20412;-71
2021/04/21 06:20:50;;;;;;;34.03;31.10;;;;;;;;;;5074688;28;20954;-71
2021/04/21 06:23:18;;;;;;;34.60;31.77;;;;;;;;;;5073614;28;20442;-71
2021/04/21 06:25:46;;;;;;;34.73;31.60;;;;;;;;;;5073929;28;20437;-71
2021/04/21 06:28:14;;;;;;;33.87;30.90;;;;;;;;;;5073769;28;20438;-71
2021/04/21 06:30:43;;;;;;;32.90;30.27;;;;;;;;;;5073755;28;20735;-71
2021/04/21 06:33:10;;;;;;;33.30;30.30;;;;;;;;;;5072392;28;20485;-70
2021/04/21 06:35:37;;;;;;;32.00;29.60;;;;;;;;;;5073701;28;20424;-71
2021/04/21 06:38:05;;;;;;;33.63;30.80;;;;;;;;;;5074231;28;20506;-71
2021/04/21 06:40:33;;;;;;;35.67;32.77;;;;;;;;;;5074094;28;20491;-71
2021/04/21 06:43:00;;;;;;;38.00;34.50;;;;;;;;;;5073872;28;20438;-71
2021/04/21 06:45:29;;;;;;;38.17;34.33;;;;;;;;;;5074147;28;20438;-70
2021/04/21 06:47:56;;;;;;;38.47;35.07;;;;;;;;;;5074085;28;20783;-71
2021/04/21 06:50:27;;;;;;;39.53;35.53;;;;;;;;;;5073756;28;20940;-71
2021/04/21 06:52:59;;;;;;;36.60;33.07;;;;;;;;;;5074092;28;20944;-71
2021/04/21 06:55:27;;;;;;;36.67;33.57;;;;;;;;;;5073751;28;20487;-77
2021/04/21 06:57:54;;;;;;;34.73;31.77;;;;;;;;;;5073998;28;20464;-79
2021/04/21 07:00:22;;;;;;;33.33;30.57;;;;;;;;;;5073322;28;20485;-80
2021/04/21 07:02:51;;;;;;;33.97;30.87;;;;;;;;;;5072508;28;20475;-82
2021/04/21 07:05:30;;;;;;;34.93;32.23;;;;;;;;;;5073737;28;20435;-78
2021/04/21 07:08:00;;;;;;;35.37;32.47;;;;;;;;;;5074168;28;20442;-82
2021/04/21 07:10:28;;;;;;;35.60;32.47;;;;;;;;;;5073839;28;20445;-82
2021/04/21 07:12:55;;;;;;;34.83;32.07;;;;;;;;;;5074115;28;20408;-83
2021/04/21 07:15:22;;;;;;;36.67;33.57;;;;;;;;;;5074348;28;20420;-83
2021/04/21 07:17:50;;;;;;;37.20;33.90;;;;;;;;;;5073782;28;20823;-71
2021/04/21 07:20:18;;;;;;;33.40;30.40;;;;;;;;;;5073340;28;20459;-72
2021/04/21 07:22:46;;;;;;;32.60;30.00;;;;;;;;;;5073217;28;20431;-71
2021/04/21 07:25:17;;;;;;;32.30;29.70;;;;;;;;;;5072167;28;20408;-71
2021/04/21 07:27:46;;;;;;;33.83;31.03;;;;;;;;;;5073106;28;20423;-71
2021/04/21 07:30:14;;;;;;;34.40;31.60;;;;;;;;;;5072492;28;20445;-74
2021/04/21 07:32:45;;;;;;;35.47;32.60;;;;;;;;;;5073433;28;20963;-71
2021/04/21 07:35:18;;;;;;;33.87;31.30;;;;;;;;;;5072421;28;20537;-79
2021/04/21 07:37:45;;;;;;;34.60;32.00;;;;;;;;;;5073361;28;20927;-75
2021/04/21 07:40:31;;;;;;;34.77;31.80;;;;;;;;;;5073648;28;20804;-75
2021/04/21 07:43:13;;;;;;;33.13;30.63;;;;;;;;;;5073557;28;20829;-78
2021/04/21 07:45:46;;;;;;;35.70;32.70;;;;;;;;;;5073893;28;20512;-84
2021/04/21 07:48:31;;;;;;;34.53;31.93;;;;;;;;;;5073579;28;20494;-72
2021/04/21 07:50:58;;;;;;;35.20;32.50;;;;;;;;;;5063863;28;20468;-83
2021/04/21 07:53:25;;;;;;;34.30;31.50;;;;;;;;;;5073436;28;20540;-72
2021/04/21 07:56:03;;;;;;;34.63;31.97;;;;;;;;;;5073179;28;20452;-71
2021/04/21 07:58:31;;;;;;;35.73;32.80;;;;;;;;;;5071996;28;20942;-72
2021/04/21 08:00:58;;;;;;;34.20;31.53;;;;;;;;;;5072966;28;20525;-72
2021/04/21 08:03:25;;;;;;;35.50;32.90;;;;;;;;;;5071653;28;20457;-72
2021/04/21 08:05:53;;;;;;;36.37;33.37;;;;;;;;;;5073211;28;20454;-74
2021/04/21 08:08:27;;;;;;;33.30;30.80;;;;;;;;;;5073461;28;20420;-72
2021/04/21 08:10:54;;;;;;;35.13;32.27;;;;;;;;;;5073297;28;20412;-73
2021/04/21 08:13:36;;;;;;;32.97;30.57;;;;;;;;;;5073277;28;20416;-72
2021/04/21 08:16:04;;;;;;;33.30;30.67;;;;;;;;;;5072609;28;20461;-72
2021/04/21 08:18:32;;;;;;;34.10;31.60;;;;;;;;;;5072891;28;20953;-72
2021/04/21 08:20:59;;;;;;;32.87;30.47;;;;;;;;;;5072920;28;20493;-72
2021/04/21 08:23:28;;;;;;;33.33;30.73;;;;;;;;;;5072907;28;20878;-73
2021/04/21 08:25:55;;;;;;;33.33;31.00;;;;;;;;;;5073137;28;20507;-72
2021/04/21 08:28:22;;;;;;;32.43;29.93;;;;;;;;;;5072712;28;20432;-72
2021/04/21 08:30:55;;;;;;;27.73;25.93;;;;;;;;;;5072960;28;20501;-73
2021/04/21 08:33:23;;;;;;;29.60;27.33;;;;;;;;;;5073058;28;20450;-73
2021/04/21 08:35:50;;;;;;;30.43;28.23;;;;;;;;;;5073730;28;20798;-72
2021/04/21 08:38:17;;;;;;;29.77;27.60;;;;;;;;;;5072748;28;20423;-72
2021/04/21 08:40:44;;;;;;;25.07;23.43;;;;;;;;;;5073644;28;20489;-72
2021/04/21 08:43:11;;;;;;;26.63;24.30;;;;;;;;;;5077253;28;20784;-73
2021/04/21 08:45:38;;;;;;;27.93;26.03;;;;;;;;;;5074937;28;20434;-73
2021/04/21 08:48:05;;;;;;;26.13;24.43;;;;;;;;;;5076069;28;20815;-72
2021/04/21 08:50:36;;;;;;;27.43;25.43;;;;;;;;;;5075984;28;20777;-73
2021/04/21 08:53:04;;;;;;;25.80;24.07;;;;;;;;;;5076356;28;20442;-73
2021/04/21 08:55:31;;;;;;;25.97;24.10;;;;;;;;;;5075772;28;20766;-72
2021/04/21 08:57:58;;;;;;;25.40;23.70;;;;;;;;;;5074503;28;20579;-72
2021/04/21 09:00:25;;;;;;;27.20;25.23;;;;;;;;;;5075912;28;20549;-73
2021/04/21 09:02:52;;;;;;;26.00;24.30;;;;;;;;;;5076050;28;20438;-72
2021/04/21 09:05:20;;;;;;;26.50;24.80;;;;;;;;;;5076135;28;20449;-72
2021/04/21 09:07:48;;;;;;;27.63;25.53;;;;;;;;;;5075808;28;20898;-73
2021/04/21 09:10:16;;;;;;;26.80;24.80;;;;;;;;;;5075672;28;20430;-73
2021/04/21 09:12:43;;;;;;;27.27;25.20;;;;;;;;;;5075636;28;20441;-72
2021/04/21 09:15:11;;;;;;;27.10;25.40;;;;;;;;;;5075643;28;20611;-73
2021/04/21 09:17:44;;;;;;;25.43;23.83;;;;;;;;;;5075531;28;20923;-74
2021/04/21 09:20:13;;;;;;;27.27;25.33;;;;;;;;;;5075656;28;20440;-73
2021/04/21 09:22:55;;;;;;;26.87;24.90;;;;;;;;;;5075515;28;20914;-73
2021/04/21 09:25:23;;;;;;;26.20;24.20;;;;;;;;;;5075660;28;20801;-74
2021/04/21 09:27:55;;;;;;;26.33;24.47;;;;;;;;;;5074135;28;20408;-73
2021/04/21 09:30:23;;;;;;;26.40;24.70;;;;;;;;;;5075597;28;20417;-74
2021/04/21 09:32:51;;;;;;;27.97;25.77;;;;;;;;;;5075276;28;20412;-74
2021/04/21 09:35:21;;;;;;;27.17;25.37;;;;;;;;;;5075115;28;20425;-73
2021/04/21 09:37:48;;;;;;;27.50;25.60;;;;;;;;;;5075582;28;20409;-73
2021/04/21 09:40:15;;;;;;;26.97;25.20;;;;;;;;;;5075192;28;20968;-73
2021/04/21 09:42:54;;;;;;;26.80;24.90;;;;;;;;;;5075431;28;20734;-74
2021/04/21 09:45:32;;;;;;;27.83;25.83;;;;;;;;;;5075044;28;20430;-74
2021/04/21 09:48:09;;;;;;;27.00;25.20;;;;;;;;;;5075374;28;20405;-74
2021/04/21 09:50:37;;;;;;;26.47;24.77;;;;;;;;;;5075200;28;20804;-76
2021/04/21 09:53:18;;;;;;;25.77;23.93;;;;;;;;;;5073290;28;20846;-73
2021/04/21 09:55:57;;;;;;;26.70;24.90;;;;;;;;;;5074680;28;20838;-73
2021/04/21 09:58:29;;;;;;;27.03;25.10;;;;;;;;;;5074726;28;20457;-73
2021/04/21 10:00:56;;;;;;;26.63;24.87;;;;;;;;;;5074664;28;20482;-73
2021/04/21 10:03:22;;;;;;;27.93;25.30;;;;;;;;;;5074885;28;20409;-73
2021/04/21 10:05:51;;;;;;;27.20;25.30;;;;;;;;;;5074688;28;20464;-74
2021/04/21 10:08:21;;;;;;;26.97;25.17;;;;;;;;;;5074754;28;20781;-72
2021/04/21 10:11:02;;;;;;;28.50;26.23;;;;;;;;;;5074312;28;20444;-72
2021/04/21 10:13:43;;;;;;;27.53;25.83;;;;;;;;;;5074512;28;20401;-74
2021/04/21 10:16:10;;;;;;;27.80;26.00;;;;;;;;;;5074713;28;20439;-73
2021/04/21 10:18:39;;;;;;;27.10;25.30;;;;;;;;;;5074452;28;20446;-74
2021/04/21 10:21:08;;;;;;;26.87;25.13;;;;;;;;;;5074272;28;20813;-74
2021/04/21 10:23:37;;;;;;;26.27;24.37;;;;;;;;;;5074953;28;20443;-74
2021/04/21 10:26:04;;;;;;;26.57;24.43;;;;;;;;;;5074237;28;20405;-74
2021/04/21 10:28:32;;;;;;;27.67;25.43;;;;;;;;;;5074164;28;20444;-74
2021/04/21 10:31:04;;;;;;;28.33;26.33;;;;;;;;;;5074317;28;20420;-74
2021/04/21 10:33:35;;;;;;;27.30;25.40;;;;;;;;;;5074089;28;20801;-73
2021/04/21 10:36:06;;;;;;;26.43;24.70;;;;;;;;;;5074179;28;20511;-74
2021/04/21 10:38:37;;;;;;;28.73;26.83;;;;;;;;;;5073867;28;20785;-73
2021/04/21 10:41:25;;;;;;;28.03;26.17;;;;;;;;;;5073957;28;20522;-73
2021/04/21 10:43:52;;;;;;;28.07;25.97;;;;;;;;;;5074387;28;20970;-73
2021/04/21 10:46:20;;;;;;;27.27;25.17;;;;;;;;;;5073995;28;20437;-73
2021/04/21 10:48:47;;;;;;;27.73;25.93;;;;;;;;;;5073754;28;20424;-74
2021/04/21 10:51:33;;;;;;;27.20;25.30;;;;;;;;;;5073831;28;20443;-74
2021/04/21 10:54:04;;;;;;;27.43;25.40;;;;;;;;;;5073827;28;20418;-74
2021/04/21 10:56:31;;;;;;;28.63;26.57;;;;;;;;;;5073344;28;20452;-74
2021/04/21 10:58:59;;;;;;;28.07;25.97;;;;;;;;;;5073641;28;20896;-74
2021/04/21 11:01:31;;;;;;;28.97;26.90;;;;;;;;;;5073852;28;20469;-73
2021/04/21 11:03:59;;;;;;;29.03;27.03;;;;;;;;;;5071743;28;20450;-74
2021/04/21 11:06:48;;;;;;;28.10;26.20;;;;;;;;;;5073820;28;20456;-74
2021/04/21 11:09:16;;;;;;;28.97;26.97;;;;;;;;;;5073776;28;20431;-74
2021/04/21 11:11:46;;;;;;;28.03;26.03;;;;;;;;;;5073587;28;20456;-74
2021/04/21 11:14:15;;;;;;;28.17;26.17;;;;;;;;;;5073766;28;20419;-73
2021/04/21 11:16:43;;;;;;;30.40;28.17;;;;;;;;;;5073456;28;20428;-74
2021/04/21 11:19:29;;;;;;;28.47;26.57;;;;;;;;;;5073504;28;20449;-74
2021/04/21 11:22:15;;;;;;;27.60;25.70;;;;;;;;;;5073457;28;20795;-75
2021/04/21 11:24:42;;;;;;;29.33;27.20;;;;;;;;;;5073805;28;20417;-74
2021/04/21 11:27:24;;;;;;;28.50;26.57;;;;;;;;;;5073595;28;20436;-75
2021/04/21 11:29:51;;;;;;;28.70;26.70;;;;;;;;;;5060980;28;20945;-74
2021/04/21 11:32:19;;;;;;;28.00;26.10;;;;;;;;;;5073399;28;20438;-74
2021/04/21 11:34:45;;;;;;;27.70;25.60;;;;;;;;;;5073565;28;20911;-74
2021/04/21 11:37:17;;;;;;;28.60;26.67;;;;;;;;;;5073645;28;20419;-74
2021/04/21 11:40:07;;;;;;;28.20;26.20;;;;;;;;;;5072055;28;20956;-74
2021/04/21 11:42:35;;;;;;;27.53;25.63;;;;;;;;;;5071992;28;20461;-73
2021/04/21 11:45:07;;;;;;;29.17;26.63;;;;;;;;;;5073726;28;20839;-80
2021/04/21 11:47:36;;;;;;;29.30;27.30;;;;;;;;;;5074009;28;20446;-83
2021/04/21 11:50:21;;;;;;;28.83;26.73;;;;;;;;;;5072817;28;20443;-74
2021/04/21 11:52:51;;;;;;;29.57;27.47;;;;;;;;;;5073114;28;20925;-74
2021/04/21 11:55:22;;;;;;;30.70;28.70;;;;;;;;;;5073130;28;20434;-73
2021/04/21 11:57:53;;;;;;;30.27;27.97;;;;;;;;;;5072939;28;20913;-74
2021/04/21 12:00:21;;;;;;;28.67;26.50;;;;;;;;;;5073232;28;20546;-74
2021/04/21 12:02:49;;;;;;;29.27;27.17;;;;;;;;;;5072083;28;20450;-75
2021/04/21 12:05:20;;;;;;;30.57;28.47;;;;;;;;;;5072140;28;20964;-75
2021/04/21 12:07:48;;;;;;;29.50;27.40;;;;;;;;;;5072880;28;20414;-75
2021/04/21 12:10:17;;;;;;;30.27;27.77;;;;;;;;;;5072916;28;20454;-75
2021/04/21 12:12:44;;;;;;;30.87;28.43;;;;;;;;;;5073023;28;20449;-75
2021/04/21 12:15:11;;;;;;;28.70;26.60;;;;;;;;;;5073312;28;20397;-74
2021/04/21 12:17:50;;;;;;;31.27;29.10;;;;;;;;;;5077071;28;20429;-74
2021/04/21 12:20:29;;;;;;;31.47;29.20;;;;;;;;;;5076604;28;20417;-73
2021/04/21 12:22:56;;;;;;;30.63;28.60;;;;;;;;;;5076934;28;20417;-74
2021/04/21 12:25:25;;;;;;;31.70;29.27;;;;;;;;;;5076691;28;20446;-74
2021/04/21 12:27:53;;;;;;;30.97;28.90;;;;;;;;;;5077112;28;20809;-75
2021/04/21 12:30:21;;;;;;;30.10;27.90;;;;;;;;;;5077078;28;20415;-74
2021/04/21 12:32:48;;;;;;;30.93;28.53;;;;;;;;;;5076706;28;20448;-74
2021/04/21 12:35:17;;;;;;;31.17;28.43;;;;;;;;;;5076460;28;20465;-74
2021/04/21 12:37:44;;;;;;;31.93;29.83;;;;;;;;;;5076483;28;20940;-74
2021/04/21 12:40:20;;;;;;;30.13;27.97;;;;;;;;;;5076553;28;20480;-74
2021/04/21 12:42:48;;;;;;;32.70;30.40;;;;;;;;;;5076276;28;20452;-74
2021/04/21 12:45:24;;;;;;;31.27;28.87;;;;;;;;;;5076258;28;20478;-74
2021/04/21 12:47:51;;;;;;;30.93;28.93;;;;;;;;;;5076075;28;20471;-74
2021/04/21 12:50:19;;;;;;;31.03;28.87;;;;;;;;;;5076147;28;20405;-74
2021/04/21 12:52:46;;;;;;;31.93;29.43;;;;;;;;;;5075222;28;20437;-75
2021/04/21 12:55:28;;;;;;;31.20;29.20;;;;;;;;;;5076022;28;20440;-74
2021/04/21 12:57:55;;;;;;;31.93;29.63;;;;;;;;;;5075996;28;20438;-75
2021/04/21 13:00:26;;;;;;;31.20;29.00;;;;;;;;;;5076049;28;20479;-73
2021/04/21 13:02:54;;;;;;;32.67;30.37;;;;;;;;;;5075857;28;20486;-75
2021/04/21 13:05:41;;;;;;;30.73;28.73;;;;;;;;;;5074780;28;20779;-74
2021/04/21 13:08:18;;;;;;;30.37;28.27;;;;;;;;;;5076176;28;20440;-74
2021/04/21 13:10:45;;;;;;;32.60;30.50;;;;;;;;;;5076000;28;20444;-75
2021/04/21 13:13:12;;;;;;;30.30;28.20;;;;;;;;;;5076070;28;20471;-74
2021/04/21 13:15:39;;;;;;;32.20;30.10;;;;;;;;;;5076056;28;20442;-85
2021/04/21 13:18:11;;;;;;;32.20;30.10;;;;;;;;;;5075569;28;20567;-84
2021/04/21 13:20:39;;;;;;;31.83;29.37;;;;;;;;;;5076302;28;20435;-74
2021/04/21 13:23:20;;;;;;;31.93;29.30;;;;;;;;;;5075722;28;20412;-90
2021/04/21 13:25:57;;;;;;;31.00;28.90;;;;;;;;;;5075609;28;20413;-73
2021/04/21 13:28:31;;;;;;;32.27;29.90;;;;;;;;;;5073401;28;20822;-74
2021/04/21 13:31:08;;;;;;;31.93;29.90;;;;;;;;;;5075401;28;20903;-74
2021/04/21 13:33:35;;;;;;;30.10;28.03;;;;;;;;;;5075894;28;20411;-82
2021/04/21 13:36:03;;;;;;;31.40;29.10;;;;;;;;;;5076444;28;20437;-81
2021/04/21 13:38:30;;;;;;;31.20;28.80;;;;;;;;;;5075818;28;20415;-72
2021/04/21 13:40:57;;;;;;;31.57;29.20;;;;;;;;;;5075177;28;20458;-72
2021/04/21 13:43:24;;;;;;;30.93;28.70;;;;;;;;;;5070160;28;20937;-72
2021/04/21 13:45:51;;;;;;;32.00;29.83;;;;;;;;;;5070178;28;20415;-73
2021/04/21 13:48:18;;;;;;;31.53;29.33;;;;;;;;;;5075332;28;20439;-73
2021/04/21 13:50:44;;;;;;;31.87;29.73;;;;;;;;;;5075491;28;20402;-74
2021/04/21 13:53:12;;;;;;;32.37;29.97;;;;;;;;;;5074952;28;20413;-73
2021/04/21 13:55:39;;;;;;;32.37;29.87;;;;;;;;;;5073603;28;20825;-73
2021/04/21 13:58:06;;;;;;;34.00;31.50;;;;;;;;;;5075588;28;20451;-72
2021/04/21 14:00:33;;;;;;;32.50;30.20;;;;;;;;;;5074699;28;20468;-73
2021/04/21 14:03:00;;;;;;;32.40;30.03;;;;;;;;;;5075630;28;20827;-73
2021/04/21 14:05:28;;;;;;;34.00;31.60;;;;;;;;;;5074639;28;20467;-73
2021/04/21 14:07:56;;;;;;;32.77;30.47;;;;;;;;;;5074958;28;20473;-73
2021/04/21 14:10:23;;;;;;;34.00;31.50;;;;;;;;;;5074939;28;20803;-72
2021/04/21 14:12:51;;;;;;;37.10;34.20;;;;;;;;;;5074455;28;20423;-73
2021/04/21 14:15:18;;;;;;;38.37;35.40;;;;;;;;;;5074810;28;20429;-73
2021/04/21 14:17:45;;;;;;;37.93;34.97;;;;;;;;;;5074529;28;20413;-71
2021/04/21 14:20:13;;;;;;;36.93;34.03;;;;;;;;;;5073014;28;20444;-73
2021/04/21 14:22:41;;;;;;;38.00;35.07;;;;;;;;;;5074519;28;20457;-74
2021/04/21 14:25:09;;;;;;;39.90;36.77;;;;;;;;;;5074257;28;20764;-74
2021/04/21 14:27:37;;;;;;;38.67;35.47;;;;;;;;;;5074405;28;20409;-73
2021/04/21 14:30:04;;;;;;;45.50;41.80;;;;;;;;;;5072957;28;20455;-73
2021/04/21 14:32:31;;;;;;;43.13;39.40;;;;;;;;;;5074402;28;20440;-72
2021/04/21 14:34:58;;;;;;;45.07;40.90;;;;;;;;;;5073855;28;20448;-72
2021/04/21 14:37:25;;;;;;;43.80;40.00;;;;;;;;;;5074282;28;20439;-77